createdAt,value
2018-06-15T00:02:30.478Z,98034.00
2018-06-15T00:19:59.335Z,98031.00
2018-06-15T00:22:36.917Z,98026.00
2018-06-15T00:25:16.063Z,98031.00
2018-06-15T00:27:56.120Z,98031.00
2018-06-15T00:30:35.986Z,98030.00
2018-06-15T00:33:15.838Z,98026.00
2018-06-15T00:35:59.760Z,98023.00
2018-06-15T00:38:41.920Z,98023.00
2018-06-15T00:41:19.753Z,98026.00
2018-06-15T00:44:02.356Z,98025.00
2018-06-15T00:46:43.156Z,98022.00
2018-06-15T00:49:22.698Z,98026.00
2018-06-15T00:52:03.557Z,98027.00
2018-06-15T00:54:45.321Z,98032.00
2018-06-15T00:57:36.117Z,98028.00
2018-06-15T01:00:15.917Z,98029.00
2018-06-15T01:02:55.821Z,98032.00
2018-06-15T01:05:35.698Z,98035.00
2018-06-15T01:08:21.799Z,98030.00
2018-06-15T01:11:02.220Z,98033.00
2018-06-15T01:13:47.921Z,98035.00
2018-06-15T01:16:26.879Z,98036.00
2018-06-15T01:19:07.428Z,98038.00
2018-06-15T02:36:14.114Z,98039.00
2018-06-15T02:38:58.315Z,98038.00
2018-06-15T02:41:43.133Z,98039.00
2018-06-15T02:44:32.209Z,98048.00
2018-06-15T02:47:14.410Z,98053.00
2018-06-15T02:49:54.593Z,98051.00
2018-06-15T02:52:35.049Z,98051.00
2018-06-15T02:55:15.973Z,98050.00
2018-06-15T02:57:55.949Z,98054.00
2018-06-15T03:00:35.174Z,98052.00
2018-06-15T03:03:22.755Z,98060.00
2018-06-15T03:06:03.833Z,98063.00
2018-06-15T03:08:43.075Z,98066.00
2018-06-15T03:11:23.712Z,98065.00
2018-06-15T03:14:03.991Z,98063.00
2018-06-15T03:16:42.096Z,98064.00
2018-06-15T03:19:31.056Z,98065.00
2018-06-15T03:22:12.814Z,98068.00
2018-06-15T03:24:58.312Z,98061.00
2018-06-15T03:27:42.522Z,98064.00
2018-06-15T03:30:22.893Z,98066.00
2018-06-15T03:33:02.294Z,98065.00
2018-06-15T03:35:43.060Z,98078.00
2018-06-15T03:38:23.014Z,98066.00
2018-06-15T03:41:10.672Z,98072.00
2018-06-15T03:43:47.794Z,98066.00
2018-06-15T03:46:28.230Z,98066.00
2018-06-15T03:49:07.873Z,98066.00
2018-06-15T03:51:46.090Z,98065.00
2018-06-15T03:54:23.927Z,98064.00
2018-06-15T03:57:02.863Z,98065.00
2018-06-15T03:59:46.448Z,98069.00
2018-06-15T04:02:24.137Z,98072.00
2018-06-15T04:05:05.257Z,98072.00
2018-06-15T04:07:43.003Z,98073.00
2018-06-15T04:10:23.453Z,98075.00
2018-06-15T04:13:11.508Z,98071.00
2018-06-15T04:15:50.472Z,98074.00
2018-06-15T04:18:28.516Z,98073.00
2018-06-15T04:21:08.831Z,98074.00
2018-06-15T04:23:49.794Z,98071.00
2018-06-15T04:26:28.334Z,98073.00
2018-06-15T04:29:08.542Z,98075.00
2018-06-15T04:31:54.578Z,98072.00
2018-06-15T04:34:35.100Z,98080.00
2018-06-15T04:37:16.497Z,98075.00
2018-06-15T04:39:57.253Z,98072.00
2018-06-15T04:42:39.556Z,98068.00
2018-06-15T04:45:24.218Z,98076.00
2018-06-15T04:48:02.336Z,98071.00
2018-06-15T04:50:41.554Z,98079.00
2018-06-15T04:53:22.076Z,98076.00
2018-06-15T04:56:05.955Z,98072.00
2018-06-15T04:58:45.176Z,98071.00
2018-06-15T14:10:30.362Z,97916.00
2018-06-15T14:13:15.083Z,97916.00
2018-06-15T14:15:58.216Z,97916.00
2018-06-15T14:18:49.620Z,97912.00
2018-06-15T14:21:40.441Z,97908.00
2018-06-15T14:24:19.278Z,97903.00
2018-06-15T14:27:07.923Z,97907.00
2018-06-15T14:29:46.136Z,97906.00
2018-06-15T14:32:35.684Z,97903.00
2018-06-15T14:35:13.525Z,97903.00
2018-06-15T14:54:27.592Z,97913.00
2018-06-15T14:57:16.270Z,97907.00
2018-06-15T14:59:58.344Z,97911.00
2018-06-15T15:02:38.380Z,97914.00
2018-06-15T15:05:21.777Z,97912.00
2018-06-15T15:08:03.135Z,97911.00
2018-06-15T15:10:39.974Z,97909.00
2018-06-15T15:13:19.569Z,97907.00
2018-06-15T15:15:57.095Z,97906.00
2018-06-15T15:18:38.038Z,97907.00
2018-06-15T15:21:24.815Z,97909.00
2018-06-15T15:24:02.640Z,97903.00
2018-06-15T15:26:41.395Z,97900.00
2018-06-15T15:29:24.044Z,97905.00
2018-06-15T15:32:06.892Z,97897.00
2018-06-15T15:34:49.454Z,97898.00
2018-06-15T15:37:27.191Z,97901.00
2018-06-15T15:40:22.360Z,97896.00
2018-06-15T15:43:17.534Z,97894.00
2018-06-15T15:46:09.497Z,97890.00
2018-06-15T15:49:03.932Z,97891.00
2018-06-15T15:51:58.988Z,97888.00
2018-06-15T15:54:38.693Z,97890.00
2018-06-15T15:57:20.876Z,97889.00
2018-06-15T16:00:02.801Z,97883.00
2018-06-15T16:02:41.472Z,97888.00
2018-06-15T16:05:21.401Z,97888.00
2018-06-15T16:08:02.877Z,97885.00
2018-06-15T16:10:48.549Z,97880.00
2018-06-15T16:13:31.896Z,97882.00
2018-06-15T16:16:13.795Z,97880.00
2018-06-15T16:18:52.012Z,97878.00
2018-06-15T16:21:31.073Z,97878.00
2018-06-15T16:24:12.956Z,97882.00
2018-06-15T16:29:51.776Z,97878.00
2018-06-15T16:32:32.653Z,97880.00
2018-06-15T16:35:13.714Z,97888.00
2018-06-15T16:37:54.759Z,97888.00
2018-06-15T16:40:32.652Z,97887.00
2018-06-15T16:43:13.297Z,97886.00
2018-06-15T16:45:53.473Z,97890.00
2018-06-15T16:48:32.520Z,97888.00
2018-06-15T16:51:11.932Z,97890.00
2018-06-15T16:53:48.850Z,97889.00
2018-06-15T16:56:31.277Z,97885.00
2018-06-15T16:59:11.718Z,97884.00
2018-06-15T17:01:54.422Z,97883.00
2018-06-15T17:04:35.096Z,97887.00
2018-06-15T17:36:39.281Z,97908.00
2018-06-15T17:39:22.871Z,97912.00
2018-06-15T17:42:05.615Z,97909.00
2018-06-15T17:44:50.716Z,97913.00
2018-06-15T17:47:30.668Z,97910.00
2018-06-15T17:50:08.013Z,97912.00
2018-06-15T17:52:45.936Z,97913.00
2018-06-15T17:55:25.553Z,97915.00
2018-06-15T17:58:08.275Z,97913.00
2018-06-15T18:00:54.114Z,97914.00
2018-06-15T18:03:35.501Z,97917.00
2018-06-15T18:06:13.776Z,97914.00
2018-06-15T18:08:56.453Z,97917.00
2018-06-15T18:11:35.872Z,97914.00
2018-06-15T18:14:18.095Z,97916.00
2018-06-15T18:16:58.656Z,97921.00
2018-06-15T18:19:38.892Z,97920.00
2018-06-15T18:22:19.016Z,97919.00
2018-06-15T18:24:58.090Z,97923.00
2018-06-15T18:27:34.092Z,97919.00
2018-06-15T18:30:16.035Z,97917.00
2018-06-15T18:32:56.637Z,97924.00
2018-06-15T18:35:35.297Z,97926.00
2018-06-15T18:38:15.970Z,97924.00
2018-06-15T18:40:54.957Z,97926.00
2018-06-15T18:43:35.451Z,97930.00
2018-06-15T18:46:13.475Z,97932.00
2018-06-15T18:48:53.930Z,97931.00
2018-06-15T18:51:38.114Z,97935.00
2018-06-15T18:54:18.314Z,97939.00
2018-06-15T18:57:05.231Z,97940.00
2018-06-15T18:59:44.557Z,97940.00
2018-06-15T19:02:24.728Z,97942.00
2018-06-15T19:05:08.195Z,97943.00
2018-06-15T19:07:50.011Z,97949.00
2018-06-15T19:10:30.174Z,97949.00
2018-06-15T19:13:10.056Z,97949.00
2018-06-15T19:15:48.231Z,97948.00
2018-06-15T19:18:30.036Z,97953.00
2018-06-15T19:21:10.993Z,97956.00
2018-06-15T19:24:00.049Z,97962.00
2018-06-15T19:26:41.312Z,97960.00
2018-06-15T19:29:21.815Z,97964.00
2018-06-15T19:32:01.015Z,97964.00
2018-06-15T19:34:43.103Z,97971.00
2018-06-15T19:37:21.556Z,97969.00
2018-06-15T19:40:00.192Z,97971.00
2018-06-15T19:42:39.883Z,97972.00
2018-06-15T19:45:21.669Z,97971.00
2018-06-15T19:48:01.896Z,97976.00
2018-06-15T19:50:41.533Z,97975.00
2018-06-15T19:53:22.923Z,97974.00
2018-06-15T19:56:00.086Z,97979.00
2018-06-15T19:58:40.717Z,97976.00
2018-06-15T20:01:23.753Z,97975.00
2018-06-15T20:04:04.880Z,97975.00
2018-06-15T20:06:48.971Z,97976.00
2018-06-15T20:09:28.991Z,97980.00
2018-06-15T20:12:06.935Z,97980.00
2018-06-15T20:14:44.319Z,97980.00
2018-06-15T20:17:23.276Z,97981.00
2018-06-15T20:20:00.977Z,97982.00
2018-06-15T20:22:38.475Z,97981.00
2018-06-15T20:25:19.616Z,97979.00
2018-06-15T20:27:58.851Z,97984.00
2018-06-15T20:30:45.751Z,97986.00
2018-06-15T20:33:26.236Z,97990.00
2018-06-15T20:36:06.259Z,97996.00
2018-06-15T20:38:49.332Z,97996.00
2018-06-15T20:41:31.312Z,98005.00
2018-06-15T20:44:11.090Z,97998.00
2018-06-15T20:46:53.994Z,98003.00
2018-06-15T20:49:33.943Z,98000.00
2018-06-15T20:52:15.812Z,98000.00
2018-06-15T20:54:56.351Z,98003.00
2018-06-15T20:57:40.059Z,98002.00
2018-06-15T21:00:19.861Z,98001.00
2018-06-15T21:02:58.293Z,98004.00
2018-06-15T22:33:13.029Z,98035.00
2018-06-15T22:35:53.379Z,98039.00
2018-06-15T22:38:34.388Z,98044.00
2018-06-15T22:41:18.259Z,98040.00
2018-06-15T22:43:56.996Z,98043.00
2018-06-15T22:46:38.357Z,98044.00
2018-06-15T22:49:18.787Z,98044.00
2018-06-15T22:52:03.813Z,98047.00
2018-06-15T22:54:43.355Z,98051.00
2018-06-15T22:57:25.489Z,98048.00
2018-06-15T23:00:07.691Z,98048.00
2018-06-15T23:02:47.631Z,98048.00
2018-06-15T23:05:27.234Z,98051.00
2018-06-15T23:08:06.992Z,98056.00
2018-06-15T23:10:50.061Z,98056.00
2018-06-15T23:13:32.114Z,98055.00
2018-06-15T23:16:15.494Z,98056.00
2018-06-15T23:18:56.270Z,98054.00
2018-06-15T23:21:38.593Z,98052.00
2018-06-15T23:24:20.494Z,98049.00
2018-06-15T23:26:58.429Z,98047.00
2018-06-15T23:29:39.192Z,98050.00
2018-06-15T23:32:22.517Z,98050.00
2018-06-15T23:35:03.100Z,98051.00
2018-06-15T23:37:51.968Z,98046.00
2018-06-15T23:40:39.297Z,98046.00
2018-06-15T23:43:26.947Z,98048.00
2018-06-15T23:46:06.934Z,98049.00
2018-06-15T23:48:48.369Z,98050.00
2018-06-15T23:51:33.429Z,98049.00
2018-06-15T23:54:14.528Z,98047.00
